Time;durP1;ratioP1;P1;durP2;ratioP2;P2;SDS_P1;SDS_P2;PMS_P1;PMS_P2;Temp;Humidity;BMP_temperature;BMP_pressure;BME280_temperature;BME280_humidity;BME280_pressure;Samples;Min_cycle;Max_cycle;Signal;HPM_P1;HPM_P2
2022/11/19 00:00:35;;;;;;;8.13;3.60;;;1.70;99.90;;;;;;6131318;23;20469;-78
2022/11/19 00:03:01;;;;;;;7.18;3.72;;;1.60;99.90;;;;;;6131485;23;20030;-78
2022/11/19 00:05:27;;;;;;;6.60;3.72;;;1.60;99.90;;;;;;6131487;23;20434;-78
2022/11/19 00:07:52;;;;;;;6.97;3.75;;;1.50;99.90;;;;;;6131441;23;20076;-78
2022/11/19 00:10:18;;;;;;;7.35;3.88;;;1.50;99.90;;;;;;6130823;23;20341;-78
2022/11/19 00:12:55;;;;;;;6.72;3.75;;;1.50;99.90;;;;;;6131340;23;20013;-78
2022/11/19 00:15:22;;;;;;;7.75;4.25;;;1.40;99.90;;;;;;6149835;23;20349;-78
2022/11/19 00:17:48;;;;;;;7.72;3.95;;;1.40;99.90;;;;;;6160853;23;20035;-79
2022/11/19 00:20:16;;;;;;;6.10;3.40;;;1.40;99.90;;;;;;6160764;23;20027;-78
2022/11/19 00:22:42;;;;;;;7.47;3.78;;;1.30;99.90;;;;;;6160781;23;20342;-78
2022/11/19 00:25:08;;;;;;;7.10;3.65;;;1.30;99.90;;;;;;6160755;23;20025;-78
2022/11/19 00:27:34;;;;;;;7.35;3.70;;;1.30;99.90;;;;;;6160728;23;20079;-78
2022/11/19 00:30:01;;;;;;;6.72;3.78;;;1.30;99.90;;;;;;6160775;23;20055;-78
2022/11/19 00:32:27;;;;;;;5.75;3.22;;;1.20;99.90;;;;;;6160702;23;20017;-78
2022/11/19 00:34:53;;;;;;;6.30;3.60;;;1.20;99.90;;;;;;6160704;23;20068;-78
2022/11/19 00:37:19;;;;;;;6.93;3.40;;;1.30;99.90;;;;;;6160619;23;20010;-78
2022/11/19 00:39:44;;;;;;;6.85;3.60;;;1.20;99.90;;;;;;6160489;23;20055;-78
2022/11/19 00:42:10;;;;;;;7.50;4.15;;;1.20;99.90;;;;;;6160692;23;20032;-78
2022/11/19 00:44:35;;;;;;;8.75;4.65;;;1.10;99.90;;;;;;6160658;23;20020;-78
2022/11/19 00:47:01;;;;;;;10.50;4.22;;;1.10;99.90;;;;;;6160596;23;20084;-78
2022/11/19 00:49:27;;;;;;;8.18;4.00;;;1.10;99.90;;;;;;6160581;23;20021;-78
2022/11/19 00:51:54;;;;;;;8.35;4.78;;;1.10;99.90;;;;;;6187282;23;20012;-78
2022/11/19 00:54:20;;;;;;;6.88;3.85;;;1.00;99.90;;;;;;6160521;23;20521;-78
2022/11/19 00:56:45;;;;;;;7.95;4.30;;;0.90;99.90;;;;;;6160453;23;20049;-78
2022/11/19 00:59:11;;;;;;;6.63;3.42;;;1.00;99.90;;;;;;6160586;23;20075;-78
2022/11/19 01:01:36;;;;;;;7.60;4.38;;;1.00;99.90;;;;;;6160448;23;20087;-78
2022/11/19 01:04:02;;;;;;;8.85;4.88;;;0.90;99.90;;;;;;6187134;23;20106;-79
2022/11/19 01:06:28;;;;;;;7.22;3.53;;;0.90;99.90;;;;;;6160479;23;20016;-78
2022/11/19 01:08:54;;;;;;;7.75;4.18;;;0.90;99.90;;;;;;6160352;23;20441;-78
2022/11/19 01:11:22;;;;;;;8.10;3.63;;;0.90;99.90;;;;;;6160320;23;20013;-79
2022/11/19 01:13:48;;;;;;;8.40;4.57;;;0.80;99.90;;;;;;6160155;23;20457;-78
2022/11/19 01:16:19;;;;;;;8.15;4.30;;;0.80;99.90;;;;;;6186983;23;20036;-78
2022/11/19 01:18:47;;;;;;;8.32;4.25;;;0.80;99.90;;;;;;6160341;23;20029;-79
2022/11/19 01:21:14;;;;;;;7.95;4.18;;;0.70;99.90;;;;;;6186255;23;20021;-78
2022/11/19 01:23:40;;;;;;;8.10;4.28;;;0.70;99.90;;;;;;6160215;23;20023;-78
2022/11/19 01:26:07;;;;;;;8.55;4.88;;;0.70;99.90;;;;;;6160145;23;20040;-79
2022/11/19 01:28:33;;;;;;;8.15;4.35;;;0.70;99.90;;;;;;6160240;23;20013;-79
2022/11/19 01:30:59;;;;;;;7.35;4.95;;;0.70;99.90;;;;;;6160158;23;20013;-78
2022/11/19 01:33:25;;;;;;;8.23;4.18;;;0.70;99.90;;;;;;6160065;23;20017;-79
2022/11/19 01:35:59;;;;;;;7.32;4.25;;;0.70;99.90;;;;;;6160040;23;20079;-78
2022/11/19 01:38:25;;;;;;;7.95;3.63;;;0.70;99.90;;;;;;6160102;23;20013;-78
2022/11/19 01:40:51;;;;;;;9.48;3.90;;;0.70;99.90;;;;;;6159991;23;20068;-79
2022/11/19 01:43:17;;;;;;;6.88;3.80;;;0.80;99.90;;;;;;6160053;23;20016;-78
2022/11/19 01:45:47;;;;;;;6.82;3.72;;;0.70;99.90;;;;;;6160086;23;20059;-78
2022/11/19 01:48:16;;;;;;;7.75;4.25;;;0.80;99.90;;;;;;6160029;23;20082;-78
2022/11/19 01:50:47;;;;;;;8.95;4.50;;;0.70;99.90;;;;;;6159893;23;20013;-78
2022/11/19 01:53:13;;;;;;;8.77;5.10;;;0.70;99.90;;;;;;6159975;23;20021;-78
2022/11/19 01:55:41;;;;;;;9.45;4.45;;;0.60;99.90;;;;;;6160031;23;20013;-78
2022/11/19 01:58:07;;;;;;;7.03;3.65;;;0.70;99.90;;;;;;6159897;23;20017;-78
2022/11/19 02:00:33;;;;;;;7.38;3.72;;;0.60;99.90;;;;;;6186486;23;20017;-78
2022/11/19 02:02:59;;;;;;;9.10;4.13;;;0.60;99.90;;;;;;6186261;23;20025;-78
2022/11/19 02:05:25;;;;;;;9.55;5.43;;;0.60;99.90;;;;;;6159827;23;20021;-78
2022/11/19 02:07:57;;;;;;;8.65;4.22;;;0.50;99.90;;;;;;6160035;23;20024;-79
2022/11/19 02:10:40;;;;;;;12.00;3.95;;;0.50;99.90;;;;;;6159885;23;20091;-79
2022/11/19 02:13:38;;;;;;;9.45;4.88;;;0.50;99.90;;;;;;6159841;23;20122;-78
2022/11/19 02:16:32;;;;;;;8.38;4.57;;;0.50;99.90;;;;;;6148882;23;20469;-79
2022/11/19 02:19:47;;;;;;;8.15;4.60;;;0.50;99.90;;;;;;6086251;23;20018;-78
2022/11/19 02:22:37;;;;;;;8.38;4.18;;;0.50;99.90;;;;;;6130255;23;20094;-79
2022/11/19 02:25:21;;;;;;;7.95;3.80;;;0.50;99.90;;;;;;6130283;23;20017;-78
2022/11/19 02:28:19;;;;;;;8.18;3.97;;;0.40;99.90;;;;;;6130162;23;20025;-78
2022/11/19 02:31:14;;;;;;;7.35;4.25;;;0.40;99.90;;;;;;6130232;23;20009;-79
2022/11/19 02:33:50;;;;;;;7.63;4.55;;;0.40;99.90;;;;;;6081528;23;20312;-78
2022/11/19 02:36:45;;;;;;;9.63;4.57;;;0.30;99.90;;;;;;6130100;23;20021;-78
2022/11/19 02:39:21;;;;;;;9.93;4.40;;;0.30;99.90;;;;;;6130062;23;20021;-78
2022/11/19 02:42:16;;;;;;;9.68;5.60;;;0.20;99.90;;;;;;6130134;23;20022;-78
2022/11/19 02:45:01;;;;;;;7.20;4.32;;;0.20;99.90;;;;;;6085856;23;20018;-79
2022/11/19 02:47:49;;;;;;;8.88;4.63;;;0.10;99.90;;;;;;6130084;23;20053;-78
2022/11/19 02:50:19;;;;;;;8.55;4.53;;;0.20;99.90;;;;;;6130082;23;20413;-78
2022/11/19 02:52:46;;;;;;;9.02;4.80;;;0.10;99.90;;;;;;6130137;23;20312;-78
2022/11/19 02:55:18;;;;;;;9.13;4.82;;;0.10;99.90;;;;;;6130016;23;20021;-78
2022/11/19 02:58:05;;;;;;;8.10;4.30;;;0.00;99.90;;;;;;6129996;23;20084;-78
2022/11/19 03:06:22;;;;;;;9.73;5.40;;;0.10;99.90;;;;;;6156430;23;20033;-78
2022/11/19 03:08:48;;;;;;;9.18;4.93;;;0.00;99.90;;;;;;6129954;23;20024;-78
2022/11/19 03:11:23;;;;;;;8.70;4.47;;;0.00;99.90;;;;;;6156391;23;20093;-78
2022/11/19 03:17:16;;;;;;;8.18;4.97;;;0.00;99.90;;;;;;6129881;23;20378;-78
2022/11/19 03:19:55;;;;;;;10.57;4.85;;;-0.10;99.90;;;;;;6130016;23;20018;-79
2022/11/19 03:22:29;;;;;;;8.57;4.78;;;-0.10;99.90;;;;;;6130026;23;20021;-78
2022/11/19 03:25:11;;;;;;;8.68;4.35;;;-0.10;99.90;;;;;;6129974;23;20013;-78
2022/11/19 03:27:45;;;;;;;8.07;4.53;;;-0.20;99.90;;;;;;6130318;23;20480;-78
2022/11/19 03:30:12;;;;;;;8.10;3.78;;;-0.20;99.90;;;;;;6156384;23;20021;-79
2022/11/19 03:32:56;;;;;;;7.80;4.78;;;-0.20;99.90;;;;;;6129938;23;20013;-78
2022/11/19 03:35:31;;;;;;;8.80;3.97;;;-0.20;99.90;;;;;;6129994;23;20021;-78
2022/11/19 03:38:02;;;;;;;11.65;4.65;;;-0.20;99.90;;;;;;6155991;23;20438;-77
2022/11/19 03:40:30;;;;;;;8.85;5.38;;;-0.30;99.90;;;;;;6129753;23;20014;-78
2022/11/19 03:42:58;;;;;;;10.55;5.13;;;-0.30;99.90;;;;;;6129762;23;20013;-78
2022/11/19 03:45:27;;;;;;;10.52;5.35;;;-0.30;99.90;;;;;;6131283;23;20088;-78
2022/11/19 03:47:55;;;;;;;7.95;5.00;;;-0.30;99.90;;;;;;6131455;23;20013;-78
2022/11/19 03:50:41;;;;;;;8.38;4.40;;;-0.30;99.90;;;;;;6131652;23;20085;-78
2022/11/19 03:53:07;;;;;;;9.35;4.38;;;-0.30;99.90;;;;;;6131610;23;20020;-78
2022/11/19 03:55:48;;;;;;;8.63;4.72;;;-0.30;99.90;;;;;;6131446;23;20017;-77
2022/11/19 03:58:14;;;;;;;9.55;5.15;;;-0.30;99.90;;;;;;6131469;23;20079;-78
2022/11/19 04:00:39;;;;;;;10.10;5.05;;;-0.40;99.90;;;;;;6131213;23;20092;-78
2022/11/19 04:03:05;;;;;;;8.07;3.90;;;-0.40;99.90;;;;;;6131484;23;20021;-78
2022/11/19 04:05:31;;;;;;;7.80;3.88;;;-0.40;99.90;;;;;;6131448;23;20024;-78
2022/11/19 04:07:56;;;;;;;10.00;5.25;;;-0.40;99.90;;;;;;6157783;23;20009;-78
2022/11/19 04:10:22;;;;;;;8.43;4.40;;;-0.40;99.90;;;;;;6131456;23;20078;-78
2022/11/19 04:12:47;;;;;;;9.10;5.80;;;-0.40;99.90;;;;;;6131403;23;20346;-79
2022/11/19 04:15:14;;;;;;;9.68;4.40;;;-0.40;99.90;;;;;;6131119;23;20560;-78
2022/11/19 04:17:40;;;;;;;10.00;4.72;;;-0.40;99.90;;;;;;6157783;23;20061;-79
2022/11/19 04:20:07;;;;;;;9.48;5.13;;;-0.40;99.90;;;;;;6157660;23;20021;-78
2022/11/19 04:22:33;;;;;;;9.02;5.18;;;-0.40;99.90;;;;;;6157255;23;20394;-79
2022/11/19 04:24:59;;;;;;;8.48;4.65;;;-0.40;99.90;;;;;;6131202;23;20427;-77
2022/11/19 04:27:24;;;;;;;7.25;4.57;;;-0.40;99.90;;;;;;6131360;23;20024;-78
2022/11/19 04:29:50;;;;;;;8.50;4.85;;;-0.40;99.90;;;;;;6157219;23;20018;-78
2022/11/19 04:32:16;;;;;;;8.82;4.90;;;-0.50;99.90;;;;;;6131247;23;20064;-78
2022/11/19 04:34:41;;;;;;;8.52;4.97;;;-0.50;99.90;;;;;;6131128;23;20013;-78
2022/11/19 04:37:07;;;;;;;9.40;4.85;;;-0.50;99.90;;;;;;6157323;23;20024;-78
2022/11/19 04:39:33;;;;;;;9.80;4.85;;;-0.50;99.90;;;;;;6131168;23;20024;-78
2022/11/19 04:41:58;;;;;;;9.73;4.75;;;-0.50;99.90;;;;;;6131057;23;20021;-78
2022/11/19 04:44:24;;;;;;;9.63;5.00;;;-0.50;99.90;;;;;;6131133;23;20021;-78
2022/11/19 04:46:50;;;;;;;10.63;5.22;;;-0.50;99.90;;;;;;6131071;23;20021;-78
2022/11/19 04:49:15;;;;;;;8.75;4.68;;;-0.50;99.90;;;;;;6157223;23;20095;-78
2022/11/19 04:51:41;;;;;;;8.30;4.13;;;-0.50;99.90;;;;;;6131022;23;20029;-78
2022/11/19 04:54:09;;;;;;;10.13;4.95;;;-0.50;99.90;;;;;;6131097;23;20029;-79
2022/11/19 04:56:35;;;;;;;9.15;4.78;;;-0.50;99.90;;;;;;6156738;23;20033;-79
2022/11/19 04:59:02;;;;;;;11.77;4.85;;;-0.60;99.90;;;;;;6130942;23;20021;-79
2022/11/19 05:01:27;;;;;;;10.57;4.93;;;-0.60;99.90;;;;;;6156956;23;20025;-78
2022/11/19 05:03:53;;;;;;;9.10;5.13;;;-0.60;99.90;;;;;;6130909;23;20013;-79
2022/11/19 05:06:19;;;;;;;10.63;4.85;;;-0.60;99.90;;;;;;6130887;23;20018;-78
2022/11/19 05:08:44;;;;;;;10.05;4.93;;;-0.60;99.90;;;;;;6130819;23;20013;-78
2022/11/19 05:11:10;;;;;;;8.23;4.43;;;-0.60;99.90;;;;;;6157273;23;20018;-78
2022/11/19 05:13:36;;;;;;;10.00;5.25;;;-0.60;99.90;;;;;;6130865;23;20342;-78
2022/11/19 05:16:01;;;;;;;9.65;5.20;;;-0.60;99.90;;;;;;6130518;23;20472;-78
2022/11/19 05:18:27;;;;;;;8.82;4.97;;;-0.60;99.90;;;;;;6130694;23;20021;-79
2022/11/19 05:20:53;;;;;;;9.32;4.47;;;-0.60;99.90;;;;;;6130639;23;20021;-78
2022/11/19 05:23:19;;;;;;;9.90;5.05;;;-0.60;99.90;;;;;;6157096;23;20084;-78
2022/11/19 05:25:45;;;;;;;12.35;5.40;;;-0.60;99.90;;;;;;6156743;23;20021;-79
2022/11/19 05:28:11;;;;;;;9.05;5.20;;;-0.60;99.90;;;;;;6130658;23;20029;-79
2022/11/19 05:30:40;;;;;;;9.50;4.97;;;-0.60;99.90;;;;;;6130702;23;20021;-78
2022/11/19 05:33:05;;;;;;;8.77;4.70;;;-0.70;99.90;;;;;;6130647;23;20018;-78
2022/11/19 05:35:31;;;;;;;9.75;5.20;;;-0.60;99.90;;;;;;6156958;23;20018;-78
2022/11/19 05:37:57;;;;;;;11.55;4.47;;;-0.60;99.90;;;;;;6130573;23;20013;-78
2022/11/19 05:40:22;;;;;;;9.38;4.63;;;-0.70;99.90;;;;;;6156807;23;20053;-78
2022/11/19 05:42:48;;;;;;;11.60;6.20;;;-0.60;99.90;;;;;;6130556;23;20025;-78
2022/11/19 05:45:14;;;;;;;9.27;4.40;;;-0.60;99.90;;;;;;6156930;23;20041;-78
2022/11/19 05:47:39;;;;;;;9.43;5.03;;;-0.60;99.90;;;;;;6130369;23;20045;-78
2022/11/19 05:50:06;;;;;;;8.50;4.82;;;-0.70;99.90;;;;;;6130489;23;20014;-79
2022/11/19 05:52:34;;;;;;;9.15;5.90;;;-0.70;99.90;;;;;;6130432;23;20024;-78
2022/11/19 05:54:59;;;;;;;10.02;5.40;;;-0.70;99.90;;;;;;6156824;23;20017;-78
2022/11/19 05:57:25;;;;;;;10.00;4.85;;;-0.70;99.90;;;;;;6156780;23;20063;-78
2022/11/19 05:59:51;;;;;;;10.60;5.28;;;-0.70;99.90;;;;;;6130322;23;20075;-78
2022/11/19 06:02:16;;;;;;;11.05;5.90;;;-0.70;99.90;;;;;;6156724;23;20084;-78
2022/11/19 06:04:42;;;;;;;10.10;5.15;;;-0.80;99.90;;;;;;6156421;23;20021;-78
2022/11/19 06:07:08;;;;;;;9.52;4.68;;;-0.80;99.90;;;;;;6156427;23;20096;-78
2022/11/19 06:09:33;;;;;;;9.05;4.38;;;-0.70;99.90;;;;;;6130138;23;20150;-78
2022/11/19 06:11:59;;;;;;;10.52;5.40;;;-0.70;99.90;;;;;;6130344;23;20022;-78
2022/11/19 06:14:26;;;;;;;8.98;4.55;;;-0.80;99.90;;;;;;6130025;23;20033;-78
2022/11/19 06:16:54;;;;;;;9.27;4.78;;;-0.70;99.90;;;;;;6130287;23;20420;-77
2022/11/19 06:19:22;;;;;;;9.90;4.65;;;-0.70;99.90;;;;;;6130779;23;20026;-78
2022/11/19 06:21:48;;;;;;;7.38;4.53;;;-0.80;99.90;;;;;;6156540;23;20021;-78
2022/11/19 06:24:14;;;;;;;9.35;4.25;;;-0.80;99.90;;;;;;6130293;23;20021;-78
2022/11/19 06:26:41;;;;;;;10.15;5.15;;;-0.80;99.90;;;;;;6156504;23;20022;-78
2022/11/19 06:29:07;;;;;;;8.88;5.03;;;-0.80;99.90;;;;;;6130304;23;20021;-78
2022/11/19 06:31:33;;;;;;;7.72;4.65;;;-0.80;99.90;;;;;;6130256;23;20018;-78
2022/11/19 06:33:58;;;;;;;8.63;5.07;;;-0.80;99.90;;;;;;6130215;23;20039;-78
2022/11/19 06:36:24;;;;;;;8.93;4.72;;;-0.80;99.90;;;;;;6130244;23;20064;-78
2022/11/19 06:38:50;;;;;;;11.13;4.35;;;-0.80;99.90;;;;;;6129987;23;20346;-78
2022/11/19 06:41:16;;;;;;;8.07;5.00;;;-0.90;99.90;;;;;;6130061;23;20028;-78
2022/11/19 06:43:42;;;;;;;10.43;5.20;;;-0.90;99.90;;;;;;6129940;23;20122;-78
2022/11/19 06:46:09;;;;;;;8.32;4.18;;;-0.90;99.90;;;;;;6130141;23;20442;-78
2022/11/19 06:48:35;;;;;;;9.48;4.95;;;-0.90;99.90;;;;;;6129893;23;20521;-78
2022/11/19 06:51:01;;;;;;;8.43;5.18;;;-0.90;99.90;;;;;;6129707;23;20017;-78
2022/11/19 06:53:27;;;;;;;8.85;5.18;;;-0.90;99.90;;;;;;6129430;23;20128;-78
2022/11/19 06:55:57;;;;;;;11.30;5.78;;;-0.90;99.90;;;;;;6128187;23;20513;-77
2022/11/19 06:58:23;;;;;;;11.25;5.32;;;-0.90;99.90;;;;;;6155489;23;20022;-78
2022/11/19 07:00:49;;;;;;;8.93;4.78;;;-1.00;99.90;;;;;;6129772;23;20032;-78
2022/11/19 07:03:15;;;;;;;9.98;5.47;;;-1.00;99.90;;;;;;6129576;23;20446;-78
2022/11/19 07:05:41;;;;;;;9.23;5.30;;;-1.00;99.90;;;;;;6129776;23;20029;-78
2022/11/19 07:08:06;;;;;;;9.55;4.85;;;-0.90;99.90;;;;;;6129852;23;20022;-78
2022/11/19 07:10:32;;;;;;;11.48;4.93;;;-1.00;99.90;;;;;;6129869;23;20439;-78
2022/11/19 07:12:58;;;;;;;9.27;5.00;;;-1.00;99.90;;;;;;6129644;23;20017;-78
2022/11/19 07:15:24;;;;;;;9.27;5.50;;;-1.00;99.90;;;;;;6129618;23;20017;-78
2022/11/19 07:17:50;;;;;;;11.38;6.20;;;-1.00;99.90;;;;;;6129887;23;20060;-78
2022/11/19 07:20:16;;;;;;;11.68;6.10;;;-1.00;99.90;;;;;;6131237;23;20025;-78
2022/11/19 07:22:42;;;;;;;10.20;5.97;;;-1.00;99.90;;;;;;6131753;23;20577;-78
2022/11/19 07:25:11;;;;;;;9.90;5.20;;;-1.10;99.90;;;;;;6131653;23;20028;-78
2022/11/19 07:27:37;;;;;;;7.95;4.57;;;-1.00;99.90;;;;;;6131566;23;20027;-78
2022/11/19 07:30:04;;;;;;;9.85;5.35;;;-1.00;99.90;;;;;;6130717;23;20096;-77
2022/11/19 07:32:31;;;;;;;8.98;4.90;;;-1.00;99.90;;;;;;6131283;23;20023;-77
2022/11/19 07:34:56;;;;;;;9.07;5.07;;;-1.00;99.90;;;;;;6131320;23;20021;-77
2022/11/19 07:37:22;;;;;;;10.32;5.47;;;-0.90;99.90;;;;;;6131208;23;20021;-77
2022/11/19 07:39:48;;;;;;;8.60;5.28;;;-1.00;99.90;;;;;;6131275;23;20029;-77
2022/11/19 07:44:57;;;;;;;9.77;5.68;;;-0.90;99.90;;;;;;6157770;23;20021;-77
2022/11/19 07:47:23;;;;;;;10.60;5.50;;;-1.00;99.90;;;;;;6157386;23;20505;-77
2022/11/19 07:49:49;;;;;;;9.88;5.60;;;-0.90;99.90;;;;;;6131313;23;20105;-76
2022/11/19 07:52:15;;;;;;;10.75;5.80;;;-1.00;99.90;;;;;;6157610;23;20010;-77
2022/11/19 07:54:40;;;;;;;8.23;4.75;;;-0.90;99.90;;;;;;6131246;23;20104;-77
2022/11/19 07:57:06;;;;;;;9.77;5.30;;;-0.90;99.90;;;;;;6157560;23;20113;-78
2022/11/19 07:59:32;;;;;;;8.63;4.88;;;-0.90;99.90;;;;;;6157286;23;20025;-78
2022/11/19 08:01:57;;;;;;;8.93;4.82;;;-0.90;99.90;;;;;;6157394;23;20021;-78
2022/11/19 08:04:23;;;;;;;8.77;5.05;;;-0.90;99.90;;;;;;6131143;23;20093;-78
2022/11/19 08:06:49;;;;;;;11.55;5.93;;;-0.80;99.90;;;;;;6157596;23;20076;-78
2022/11/19 08:09:14;;;;;;;8.98;4.50;;;-0.80;99.90;;;;;;6157358;23;20021;-78
2022/11/19 08:11:40;;;;;;;11.85;5.57;;;-0.70;99.90;;;;;;6157057;23;20018;-78
2022/11/19 08:14:06;;;;;;;10.80;5.75;;;-0.70;99.90;;;;;;6130802;23;20026;-79
2022/11/19 08:19:17;;;;;;;11.73;4.93;;;-0.60;99.90;;;;;;6157453;23;20083;-78
2022/11/19 08:21:45;;;;;;;9.02;4.45;;;-0.60;99.90;;;;;;6130885;23;20053;-78
2022/11/19 08:24:12;;;;;;;10.63;5.13;;;-0.50;99.90;;;;;;6156929;23;20080;-79
2022/11/19 08:26:39;;;;;;;10.93;4.68;;;-0.40;99.90;;;;;;6157402;23;20014;-80
2022/11/19 08:29:05;;;;;;;10.20;5.22;;;-0.40;99.90;;;;;;6129999;23;20016;-78
2022/11/19 08:31:31;;;;;;;9.00;5.00;;;-0.30;99.90;;;;;;6156423;23;20454;-79
2022/11/19 08:33:57;;;;;;;8.70;4.60;;;-0.30;99.90;;;;;;6156729;23;20425;-79
2022/11/19 08:36:23;;;;;;;9.82;5.65;;;-0.20;99.90;;;;;;6131017;23;20448;-79
2022/11/19 08:38:48;;;;;;;10.05;5.50;;;-0.10;99.90;;;;;;6157099;23;20005;-79
2022/11/19 08:44:01;;;;;;;11.68;5.25;;;0.00;99.90;;;;;;6156963;23;20025;-80
2022/11/19 08:46:26;;;;;;;9.65;5.82;;;0.00;99.90;;;;;;6130707;23;20032;-79
2022/11/19 08:48:52;;;;;;;8.70;4.93;;;0.00;99.90;;;;;;6130590;23;20013;-79
2022/11/19 08:51:18;;;;;;;8.75;4.82;;;0.10;99.90;;;;;;6157053;23;20025;-80
2022/11/19 08:53:43;;;;;;;8.90;5.40;;;0.20;99.90;;;;;;6156996;23;20018;-80
2022/11/19 08:56:09;;;;;;;9.10;4.72;;;0.30;99.90;;;;;;6130716;23;20449;-79
2022/11/19 08:58:35;;;;;;;8.52;4.75;;;0.40;99.90;;;;;;6157022;23;20091;-79
2022/11/19 09:01:10;;;;;;;8.48;4.35;;;0.50;99.90;;;;;;6130455;23;20025;-79
2022/11/19 09:03:36;;;;;;;11.20;4.75;;;0.50;99.90;;;;;;6157044;23;20049;-79
2022/11/19 09:06:02;;;;;;;8.68;4.63;;;0.50;99.90;;;;;;6156598;23;20068;-79
2022/11/19 09:08:28;;;;;;;7.55;4.28;;;0.60;99.90;;;;;;6156986;23;20018;-79
2022/11/19 09:10:54;;;;;;;9.23;4.28;;;0.70;99.90;;;;;;6156954;23;20015;-79
2022/11/19 09:13:20;;;;;;;7.95;4.57;;;0.80;99.90;;;;;;6130620;23;20392;-80
2022/11/19 09:15:49;;;;;;;9.57;4.45;;;1.00;99.90;;;;;;6130038;23;20060;-80
2022/11/19 09:18:16;;;;;;;8.27;4.47;;;1.00;99.90;;;;;;6130510;23;20025;-80
2022/11/19 09:20:42;;;;;;;9.75;4.28;;;1.10;99.90;;;;;;6156534;23;20017;-79
2022/11/19 09:23:08;;;;;;;8.30;4.70;;;1.30;99.90;;;;;;6130304;23;20079;-80
2022/11/19 09:25:33;;;;;;;8.32;4.40;;;1.40;99.90;;;;;;6130294;23;20343;-80
2022/11/19 09:27:59;;;;;;;8.07;4.20;;;1.50;99.90;;;;;;6156762;23;20053;-79
2022/11/19 09:30:25;;;;;;;9.85;4.97;;;1.50;99.90;;;;;;6156252;23;20014;-80
2022/11/19 09:32:50;;;;;;;7.35;4.38;;;1.60;99.90;;;;;;6130203;23;20022;-80
2022/11/19 09:35:17;;;;;;;9.65;4.82;;;1.60;99.90;;;;;;6156407;23;20358;-80
2022/11/19 09:37:43;;;;;;;6.80;4.22;;;1.70;99.90;;;;;;6130360;23;20073;-80
2022/11/19 09:40:18;;;;;;;8.70;4.30;;;1.80;99.90;;;;;;6156461;23;20017;-80
2022/11/19 09:43:12;;;;;;;8.30;4.70;;;2.00;99.90;;;;;;6156520;23;20061;-79
2022/11/19 09:45:54;;;;;;;8.52;5.30;;;2.10;99.90;;;;;;6156408;23;20013;-79
2022/11/19 09:48:38;;;;;;;8.02;4.18;;;2.20;99.90;;;;;;6156687;23;20092;-79
2022/11/19 09:51:15;;;;;;;8.20;4.70;;;2.30;99.90;;;;;;6130277;23;20021;-79
2022/11/19 09:53:47;;;;;;;8.82;4.57;;;2.30;99.90;;;;;;6156250;23;20489;-80
2022/11/19 09:56:28;;;;;;;7.72;4.68;;;2.40;99.90;;;;;;6130025;23;20010;-80
2022/11/19 09:58:56;;;;;;;6.78;4.25;;;2.50;99.90;;;;;;6156240;23;20056;-80
2022/11/19 10:01:22;;;;;;;7.53;4.20;;;2.50;99.90;;;;;;6155693;23;20017;-79
2022/11/19 10:03:50;;;;;;;8.05;4.25;;;2.50;99.90;;;;;;6156368;23;20020;-80
2022/11/19 10:06:29;;;;;;;8.05;4.65;;;2.50;99.90;;;;;;6130075;23;20021;-80
2022/11/19 10:09:13;;;;;;;7.63;4.32;;;2.60;99.90;;;;;;6156205;23;20080;-80
2022/11/19 10:12:00;;;;;;;8.32;4.43;;;2.50;99.90;;;;;;6156437;23;20021;-80
2022/11/19 10:14:29;;;;;;;6.60;3.92;;;2.70;99.90;;;;;;6129822;23;20072;-80
2022/11/19 10:17:25;;;;;;;7.13;3.70;;;2.50;99.90;;;;;;6156221;23;20076;-80
2022/11/19 10:20:09;;;;;;;10.45;4.28;;;2.70;99.90;;;;;;6156497;23;20040;-80
2022/11/19 10:22:55;;;;;;;8.27;4.95;;;2.70;99.90;;;;;;6156355;23;20013;-80
2022/11/19 10:25:28;;;;;;;8.95;4.72;;;2.90;99.90;;;;;;6156319;23;20020;-80
2022/11/19 10:28:02;;;;;;;7.10;4.25;;;2.90;99.90;;;;;;6156354;23;20020;-80
2022/11/19 10:30:29;;;;;;;8.95;4.13;;;3.00;99.90;;;;;;6129987;23;20021;-81
2022/11/19 10:33:08;;;;;;;9.25;4.40;;;3.00;99.90;;;;;;6156166;23;20021;-81
2022/11/19 10:35:59;;;;;;;8.35;4.55;;;3.00;99.90;;;;;;6156317;23;20092;-80
2022/11/19 10:38:47;;;;;;;8.23;4.10;;;3.10;99.90;;;;;;6155100;23;20024;-80
2022/11/19 10:41:31;;;;;;;7.38;3.80;;;3.10;99.90;;;;;;6129735;23;20053;-80
2022/11/19 10:44:01;;;;;;;7.35;4.45;;;3.20;99.90;;;;;;6156122;23;20025;-81
2022/11/19 10:46:27;;;;;;;7.65;4.50;;;3.20;99.90;;;;;;6129615;23;20096;-80
2022/11/19 10:49:03;;;;;;;8.45;4.20;;;3.20;99.90;;;;;;6155880;23;20013;-80
2022/11/19 10:51:41;;;;;;;7.55;4.35;;;3.30;99.90;;;;;;6156229;23;20069;-80
2022/11/19 10:54:24;;;;;;;6.72;3.78;;;3.40;99.90;;;;;;6130224;23;20104;-80
2022/11/19 10:56:51;;;;;;;;;;;3.40;99.90;;;;;;6158804;23;20018;-80
2022/11/19 10:59:19;;;;;;;7.70;4.15;;;3.50;99.90;;;;;;6157934;23;19943;-80
2022/11/19 11:01:49;;;;;;;7.97;4.30;;;3.50;99.90;;;;;;6131487;23;20049;-80
2022/11/19 11:04:20;;;;;;;8.77;4.63;;;3.50;99.90;;;;;;6131725;23;20021;-80
2022/11/19 11:07:04;;;;;;;7.47;4.30;;;3.50;99.90;;;;;;6131698;23;20045;-80
2022/11/19 11:09:33;;;;;;;8.85;4.97;;;3.50;99.90;;;;;;6158083;23;20049;-80
2022/11/19 11:15:13;;;;;;;11.35;4.85;;;3.60;99.90;;;;;;6157500;23;20033;-79
2022/11/19 11:17:41;;;;;;;8.38;4.53;;;3.70;99.90;;;;;;6157676;23;20323;-79
2022/11/19 11:20:07;;;;;;;8.70;4.40;;;3.70;99.90;;;;;;6131417;23;20052;-79
2022/11/19 11:22:34;;;;;;;7.55;4.25;;;3.80;99.90;;;;;;6157632;23;20047;-79
2022/11/19 11:25:01;;;;;;;7.18;4.63;;;3.80;99.90;;;;;;6131648;23;20080;-79
2022/11/19 11:27:29;;;;;;;8.82;4.93;;;3.80;99.90;;;;;;6157580;23;20638;-79
2022/11/19 11:30:10;;;;;;;9.57;5.18;;;3.70;99.90;;;;;;6157721;23;20013;-80
2022/11/19 11:32:37;;;;;;;9.18;5.72;;;3.70;99.90;;;;;;6157909;23;20032;-79
2022/11/19 11:35:04;;;;;;;8.00;4.60;;;3.90;99.90;;;;;;6157763;23;20018;-79
2022/11/19 11:37:30;;;;;;;6.95;4.25;;;3.90;99.90;;;;;;6157785;23;20103;-79
2022/11/19 11:39:57;;;;;;;7.25;4.15;;;3.90;99.90;;;;;;6131388;23;20088;-80
2022/11/19 11:42:27;;;;;;;8.57;4.32;;;4.00;99.90;;;;;;6131157;23;20512;-79
2022/11/19 11:45:00;;;;;;;7.35;3.75;;;4.00;99.90;;;;;;6157660;23;20014;-79
2022/11/19 11:47:44;;;;;;;;;;;3.90;99.90;;;;;;6131937;23;20029;-79
2022/11/19 11:50:26;;;;;;;7.55;4.20;;;3.90;99.90;;;;;;6131265;23;19920;-80
2022/11/19 11:52:54;;;;;;;6.88;3.97;;;3.90;99.90;;;;;;6131031;23;20056;-79
2022/11/19 11:55:23;;;;;;;6.53;4.03;;;3.90;99.90;;;;;;6154911;23;20468;-79
2022/11/19 11:57:59;;;;;;;10.20;4.15;;;4.00;99.90;;;;;;6155373;23;20450;-80
2022/11/19 12:00:41;;;;;;;10.35;6.00;;;3.90;99.90;;;;;;6157602;23;20041;-81
2022/11/19 12:03:18;;;;;;;7.30;4.55;;;3.90;99.90;;;;;;6131187;23;20032;-79
2022/11/19 12:05:46;;;;;;;7.35;4.22;;;3.80;99.90;;;;;;6131057;23;20349;-80
2022/11/19 12:08:29;;;;;;;8.77;4.10;;;3.80;99.90;;;;;;6157269;23;20026;-80
2022/11/19 12:11:17;;;;;;;7.82;3.80;;;3.80;99.90;;;;;;6131279;23;20021;-84
2022/11/19 12:13:46;;;;;;;8.30;4.43;;;3.80;99.90;;;;;;6112958;23;20523;-80
2022/11/19 12:16:36;;;;;;;7.90;4.57;;;3.90;99.90;;;;;;6156972;23;20063;-81
2022/11/19 12:19:05;;;;;;;8.20;4.57;;;3.90;99.90;;;;;;6157533;23;20103;-80
2022/11/19 12:21:52;;;;;;;5.68;3.35;;;4.00;99.90;;;;;;6157279;23;20021;-80
2022/11/19 12:24:44;;;;;;;5.85;3.50;;;4.00;99.90;;;;;;6130984;23;20021;-79
2022/11/19 12:27:34;;;;;;;6.95;3.42;;;4.10;99.90;;;;;;6157391;23;20021;-79
2022/11/19 12:30:35;;;;;;;7.50;3.97;;;4.10;99.90;;;;;;6156914;23;20013;-79
2022/11/19 12:33:04;;;;;;;6.75;3.67;;;4.10;99.90;;;;;;6115486;23;20393;-79
2022/11/19 12:35:40;;;;;;;5.85;3.25;;;4.20;99.90;;;;;;6156976;23;20402;-80
2022/11/19 12:38:34;;;;;;;7.10;3.47;;;4.30;99.90;;;;;;6130714;23;20338;-79
2022/11/19 12:41:34;;;;;;;7.00;3.80;;;4.20;99.90;;;;;;6130790;23;20021;-79
2022/11/19 12:44:07;;;;;;;7.80;3.65;;;4.10;99.90;;;;;;6156868;23;20446;-79
2022/11/19 12:46:47;;;;;;;7.25;4.22;;;4.20;99.90;;;;;;6157268;23;20024;-79
2022/11/19 12:49:32;;;;;;;6.47;3.53;;;4.30;99.90;;;;;;6156823;23;20513;-79
2022/11/19 12:52:04;;;;;;;9.05;4.57;;;4.30;99.90;;;;;;6156943;23;20025;-79
2022/11/19 12:54:47;;;;;;;7.68;3.90;;;4.30;99.90;;;;;;6156838;23;20014;-80
2022/11/19 12:57:24;;;;;;;8.02;4.28;;;4.30;99.90;;;;;;6156986;23;20017;-80
2022/11/19 13:00:05;;;;;;;8.55;4.30;;;4.40;99.90;;;;;;6157062;23;20018;-80
2022/11/19 13:02:46;;;;;;;9.02;4.40;;;4.40;99.90;;;;;;6130500;23;20029;-80
2022/11/19 13:05:38;;;;;;;7.93;4.28;;;4.50;99.90;;;;;;6157047;23;20021;-80
2022/11/19 13:08:15;;;;;;;5.82;3.42;;;4.30;99.90;;;;;;6118828;23;20028;-79
2022/11/19 13:10:59;;;;;;;6.00;3.58;;;4.20;99.90;;;;;;6130513;23;20438;-80
2022/11/19 13:13:28;;;;;;;7.38;3.42;;;4.30;99.90;;;;;;6130559;23;20025;-80
2022/11/19 13:15:59;;;;;;;8.25;3.80;;;4.30;99.90;;;;;;6130274;23;20446;-80
2022/11/19 13:18:29;;;;;;;6.68;3.53;;;4.30;99.90;;;;;;6130139;23;20026;-82
2022/11/19 13:20:56;;;;;;;18.05;4.88;;;4.30;99.90;;;;;;6156876;23;20013;-82
2022/11/19 13:23:24;;;;;;;7.47;4.05;;;4.30;99.90;;;;;;6130361;23;20557;-81
2022/11/19 13:26:15;;;;;;;7.55;3.70;;;4.30;99.90;;;;;;6156534;23;20535;-82
2022/11/19 13:29:03;;;;;;;7.18;3.38;;;4.40;99.90;;;;;;6156801;23;20044;-82
2022/11/19 13:31:32;;;;;;;6.88;3.47;;;4.40;99.90;;;;;;6130268;23;20021;-82